KBID Airport (Block Island State) Information

FAA: BID - ICAO: KBID

KBID Airport Location

State Rhode Island
County Washington
City Block Island
KBID Airport is 1 miles west of Block Island, RI.
Latitude 41-10-05.2000N
Longitude 071-34-40.2000W
Elevation 107ft

KBID Airport METARs

METAR KBID 251656Z AUTO 20013G18KT 10SM CLR 19/17 A2996 RMK AO2 SLP147 T01940172
Altimeter 29.96"
Temperature 19.4°C (66.9°F)
Wind 200° at 13KT with gusts to 18KT
Clouds Skies are clear.
Visibility 10.0mi
Time observed: 2021-10-25T16:56:00Z

KBID Airport Details

Status Operational
Activation June 1950
Ownership Public
Usage Public
Chart NEW YORK
ATC on-site No
Beacon schedule sunset-sunrise
Beacon color clear green

KBID Airport Contacts

Owner STATE OF RHODE ISLAND
Owner address RI AIRPORT CORPORATION, 2000 POST RD, WARWICK, RI 02886
Owner phone 401-691-2227
Manager WILLIAM K. POUST
Manager address RD 2, P.O. BOX 575, MONTGOMERY, PA 17752
Manager phone N/A

KBID Airport (Block Island State) Radio Frequencies

KBID (Airport) Radio Frequencies

UNICOM 123
Common traffic advisory frequency (CTAF) 123